Time;durP1;ratioP1;P1;durP2;ratioP2;P2;SDS_P1;SDS_P2;PMS_P1;PMS_P2;Temp;Humidity;BMP_temperature;BMP_pressure;BME280_temperature;BME280_humidity;BME280_pressure;Samples;Min_cycle;Max_cycle;Signal;HPM_P1;HPM_P2
2023/10/05 00:01:21;;;;;;;8.50;1.73;;;14.00;99.90;;;;;;4851000;29;20120;-89
2023/10/05 00:03:50;;;;;;;7.00;1.45;;;13.90;99.90;;;;;;4871716;29;20046;-88
2023/10/05 00:06:17;;;;;;;6.47;1.38;;;13.90;99.90;;;;;;4853682;29;20508;-88
2023/10/05 00:08:49;;;;;;;8.05;1.85;;;13.90;99.90;;;;;;4869164;29;20137;-88
2023/10/05 00:11:28;;;;;;;7.07;1.58;;;14.00;99.90;;;;;;4867050;29;20038;-87
2023/10/05 00:13:57;;;;;;;9.27;1.75;;;13.90;99.90;;;;;;4851706;29;20052;-89
2023/10/05 00:16:23;;;;;;;12.30;2.05;;;14.00;99.90;;;;;;4844521;29;20041;-88
2023/10/05 00:18:51;;;;;;;5.65;1.45;;;14.00;99.90;;;;;;4868848;29;20551;-88
2023/10/05 00:21:19;;;;;;;10.35;1.88;;;13.90;99.90;;;;;;4869684;29;20090;-90
2023/10/05 00:23:52;;;;;;;6.00;1.40;;;14.00;99.90;;;;;;4852619;29;20217;-89
2023/10/05 00:26:27;;;;;;;8.48;1.55;;;13.90;99.90;;;;;;4854925;29;20029;-89
2023/10/05 00:29:04;;;;;;;6.78;1.33;;;14.00;99.90;;;;;;4871659;29;20089;-89
2023/10/05 00:31:30;;;;;;;4.43;1.30;;;14.00;99.90;;;;;;4854107;29;20056;-89
2023/10/05 00:33:56;;;;;;;8.80;1.70;;;14.00;99.90;;;;;;4851729;29;20052;-89
2023/10/05 00:36:26;;;;;;;8.23;1.77;;;14.00;99.90;;;;;;4867682;29;20128;-89
2023/10/05 00:38:52;;;;;;;8.65;1.48;;;13.90;99.90;;;;;;4854647;29;20070;-89
2023/10/05 00:41:17;;;;;;;11.30;1.90;;;13.90;99.90;;;;;;4854489;29;20040;-88
2023/10/05 00:43:46;;;;;;;7.15;1.60;;;13.90;99.90;;;;;;4854807;29;20132;-88
2023/10/05 00:46:12;;;;;;;9.77;1.40;;;13.90;99.90;;;;;;4851915;29;20041;-90
2023/10/05 00:48:48;;;;;;;7.55;1.50;;;13.90;99.90;;;;;;4855051;29;20044;-88
2023/10/05 00:51:23;;;;;;;7.38;1.70;;;13.90;99.90;;;;;;4865325;29;20040;-89
2023/10/05 00:53:50;;;;;;;10.13;2.20;;;13.90;99.90;;;;;;4868825;29;20049;-90
2023/10/05 00:56:16;;;;;;;8.20;1.65;;;13.90;99.90;;;;;;4853242;29;20056;-89
2023/10/05 00:58:44;;;;;;;5.53;1.40;;;13.90;99.90;;;;;;4852538;29;20097;-88
2023/10/05 01:01:23;;;;;;;5.57;1.40;;;13.90;99.90;;;;;;4867055;29;20040;-89
2023/10/05 01:06:32;;;;;;;8.13;1.55;;;13.90;99.90;;;;;;4850889;29;20082;-88
2023/10/05 01:09:02;;;;;;;8.65;1.48;;;13.90;99.90;;;;;;4867376;29;20139;-89
2023/10/05 01:11:43;;;;;;;7.93;1.73;;;13.90;99.90;;;;;;4854765;29;20089;-90
2023/10/05 01:14:09;;;;;;;7.55;1.70;;;13.90;99.90;;;;;;4854256;29;20512;-89
2023/10/05 01:16:35;;;;;;;8.60;1.80;;;13.90;99.90;;;;;;4864917;29;20116;-88
2023/10/05 01:19:07;;;;;;;10.57;1.95;;;13.90;99.90;;;;;;4851612;29;20215;-89
2023/10/05 01:21:35;;;;;;;5.93;1.50;;;13.90;99.90;;;;;;4853567;29;20033;-88
2023/10/05 01:24:02;;;;;;;9.20;1.77;;;13.90;99.90;;;;;;4869202;29;20496;-89
2023/10/05 01:26:28;;;;;;;5.75;1.50;;;13.90;99.90;;;;;;4849642;29;20579;-89
2023/10/05 01:28:54;;;;;;;11.13;1.48;;;13.90;99.90;;;;;;4846254;29;20034;-89
2023/10/05 01:31:21;;;;;;;7.20;1.50;;;13.80;99.90;;;;;;4854898;29;20025;-89
2023/10/05 01:33:47;;;;;;;7.90;1.80;;;13.80;99.90;;;;;;4855434;29;20159;-89
2023/10/05 01:36:16;;;;;;;4.47;1.50;;;13.80;99.90;;;;;;4853157;29;20072;-90
2023/10/05 01:38:44;;;;;;;4.50;1.48;;;13.80;99.90;;;;;;4853358;29;20052;-89
2023/10/05 01:41:10;;;;;;;5.20;1.83;;;13.80;99.90;;;;;;4870701;29;20022;-90
2023/10/05 01:43:42;;;;;;;6.95;1.73;;;13.80;99.90;;;;;;4862345;29;20058;-89
2023/10/05 01:46:10;;;;;;;;;;;13.80;99.90;;;;;;4866571;29;20097;-90
2023/10/05 01:48:40;;;;;;;10.20;1.67;;;13.80;99.90;;;;;;4873241;29;19939;-90
2023/10/05 01:51:14;;;;;;;9.77;1.55;;;13.80;99.90;;;;;;4860558;29;20121;-89
2023/10/05 01:53:40;;;;;;;6.50;1.77;;;13.80;99.90;;;;;;4862234;29;20075;-89
2023/10/05 01:56:14;;;;;;;8.85;2.08;;;13.80;99.90;;;;;;4862278;29;20124;-88
2023/10/05 01:58:43;;;;;;;4.90;1.20;;;13.80;99.90;;;;;;4866462;29;20034;-89
2023/10/05 02:01:10;;;;;;;5.20;1.50;;;13.80;99.90;;;;;;4858977;29;20045;-88
2023/10/05 02:03:36;;;;;;;6.35;1.70;;;13.80;99.90;;;;;;4883403;29;20056;-90
2023/10/05 02:06:11;;;;;;;11.18;1.65;;;13.70;99.90;;;;;;4865854;29;20033;-90
2023/10/05 02:08:41;;;;;;;7.72;1.60;;;13.70;99.90;;;;;;4879484;29;20570;-89
2023/10/05 02:11:09;;;;;;;6.83;1.20;;;13.70;99.90;;;;;;4857999;29;20121;-89
2023/10/05 02:13:35;;;;;;;8.15;1.33;;;13.60;99.90;;;;;;4859790;29;20041;-89
2023/10/05 02:16:02;;;;;;;5.38;1.38;;;13.60;99.90;;;;;;4857561;29;20034;-89
2023/10/05 02:18:31;;;;;;;5.45;1.25;;;13.60;99.90;;;;;;4862588;29;20507;-89
2023/10/05 02:21:06;;;;;;;7.05;1.40;;;13.60;99.90;;;;;;4861783;29;20030;-89
2023/10/05 02:23:38;;;;;;;6.45;1.70;;;13.50;99.90;;;;;;4874217;29;20086;-88
2023/10/05 02:26:10;;;;;;;7.50;1.92;;;13.60;99.90;;;;;;4861820;29;20044;-90
2023/10/05 02:28:39;;;;;;;5.18;1.90;;;13.50;99.90;;;;;;4862755;29;20076;-91
2023/10/05 02:31:12;;;;;;;6.05;1.50;;;13.50;99.90;;;;;;4860928;29;20129;-90
2023/10/05 02:33:40;;;;;;;5.30;1.73;;;13.40;99.90;;;;;;4859975;29;20052;-90
2023/10/05 02:36:11;;;;;;;8.05;1.70;;;13.30;99.90;;;;;;4862625;29;20033;-89
2023/10/05 02:38:48;;;;;;;3.63;1.40;;;13.20;99.90;;;;;;4862257;29;20033;-90
2023/10/05 02:41:16;;;;;;;7.85;1.60;;;13.20;99.90;;;;;;4859478;29;20373;-90
2023/10/05 02:43:51;;;;;;;9.57;1.67;;;13.20;99.90;;;;;;4858899;29;20037;-91
2023/10/05 02:46:17;;;;;;;8.25;1.58;;;13.20;99.90;;;;;;4852128;29;20029;-91
2023/10/05 02:48:43;;;;;;;4.53;1.48;;;13.10;99.90;;;;;;4840326;29;20084;-89
2023/10/05 02:51:13;;;;;;;4.43;1.30;;;13.10;99.90;;;;;;4855885;29;20040;-90
2023/10/05 02:53:43;;;;;;;7.50;1.55;;;13.10;99.90;;;;;;4872766;29;20064;-91
2023/10/05 02:56:27;;;;;;;3.35;1.33;;;13.10;99.90;;;;;;4860003;29;20043;-90
2023/10/05 02:58:55;;;;;;;4.80;1.60;;;13.10;99.90;;;;;;4872910;29;20132;-90
2023/10/05 03:01:22;;;;;;;6.80;1.50;;;13.10;99.90;;;;;;4859616;29;20521;-90
2023/10/05 03:03:48;;;;;;;6.05;1.50;;;13.00;99.90;;;;;;4859152;29;20101;-90
2023/10/05 03:06:15;;;;;;;6.47;1.77;;;13.00;99.90;;;;;;4860676;29;20034;-90
2023/10/05 03:08:42;;;;;;;6.88;1.40;;;13.00;99.90;;;;;;4861222;29;20045;-90
2023/10/05 03:11:08;;;;;;;5.35;1.58;;;13.00;99.90;;;;;;4874314;29;20025;-90
2023/10/05 03:13:37;;;;;;;6.03;1.92;;;13.00;99.90;;;;;;4854564;29;20126;-90
2023/10/05 03:16:06;;;;;;;7.53;1.23;;;13.00;99.90;;;;;;4867268;29;20084;-91
2023/10/05 03:18:37;;;;;;;5.38;1.50;;;13.00;99.90;;;;;;4871383;29;20029;-90
2023/10/05 03:21:13;;;;;;;5.50;1.42;;;13.00;99.90;;;;;;4856215;29;20033;-91
2023/10/05 03:23:43;;;;;;;4.25;1.30;;;13.00;99.90;;;;;;4850667;29;20040;-90
2023/10/05 03:26:10;;;;;;;6.78;1.58;;;13.00;99.90;;;;;;4869766;29;20424;-90
2023/10/05 03:28:36;;;;;;;5.47;1.85;;;12.90;99.90;;;;;;4855056;29;20072;-90
2023/10/05 03:31:07;;;;;;;5.47;1.80;;;12.90;99.90;;;;;;4855587;29;20351;-90
2023/10/05 03:33:34;;;;;;;4.15;1.55;;;12.90;99.90;;;;;;4871357;29;20054;-90
2023/10/05 03:36:06;;;;;;;7.50;1.58;;;12.90;99.90;;;;;;4871277;29;20152;-90
2023/10/05 03:38:35;;;;;;;7.18;1.52;;;12.80;99.90;;;;;;4847785;29;20045;-91
2023/10/05 03:41:04;;;;;;;6.47;1.40;;;12.80;99.90;;;;;;4871347;29;20219;-90
2023/10/05 03:43:31;;;;;;;4.20;1.30;;;12.90;99.90;;;;;;4857326;29;20419;-88
2023/10/05 03:45:57;;;;;;;5.75;1.50;;;12.90;99.90;;;;;;4857401;29;21326;-90
2023/10/05 03:48:22;;;;;;;6.90;1.58;;;12.90;99.90;;;;;;4858768;29;20232;-89
2023/10/05 03:50:48;;;;;;;8.23;1.50;;;12.90;99.90;;;;;;4855540;29;20029;-89
2023/10/05 03:53:16;;;;;;;7.15;1.40;;;13.00;99.90;;;;;;4853638;29;20416;-90
2023/10/05 03:55:41;;;;;;;7.72;1.50;;;13.00;99.90;;;;;;4864287;29;20053;-91
2023/10/05 03:58:07;;;;;;;6.28;1.50;;;13.00;99.90;;;;;;4858725;29;20047;-90
2023/10/05 04:00:35;;;;;;;5.43;1.45;;;13.10;99.90;;;;;;4860329;29;20033;-91
2023/10/05 04:03:02;;;;;;;6.90;1.58;;;13.10;99.90;;;;;;4866673;29;21682;-90
2023/10/05 04:05:28;;;;;;;9.30;1.40;;;13.10;99.90;;;;;;4850253;29;20048;-90
2023/10/05 04:08:00;;;;;;;4.85;1.35;;;13.10;99.90;;;;;;4861091;29;20209;-91
2023/10/05 04:10:45;;;;;;;8.63;1.25;;;13.10;99.90;;;;;;4863184;29;20041;-90
2023/10/05 04:13:15;;;;;;;4.00;1.30;;;13.20;99.90;;;;;;4859810;29;20062;-90
2023/10/05 04:15:41;;;;;;;3.13;1.38;;;13.20;99.90;;;;;;4842497;29;20597;-90
2023/10/05 04:18:15;;;;;;;5.90;1.40;;;13.20;99.90;;;;;;4858488;29;20034;-90
2023/10/05 04:20:43;;;;;;;5.30;1.30;;;13.20;99.90;;;;;;4857297;29;20021;-90
2023/10/05 04:23:10;;;;;;;6.03;1.60;;;13.20;99.90;;;;;;4870289;29;20040;-90
2023/10/05 04:25:35;;;;;;;6.45;1.67;;;13.20;99.90;;;;;;4846529;29;20098;-92
2023/10/05 04:28:01;;;;;;;4.88;1.40;;;13.20;99.90;;;;;;4848046;29;20116;-91
2023/10/05 04:30:27;;;;;;;5.38;1.50;;;13.10;99.90;;;;;;4842603;29;20069;-91
2023/10/05 04:32:53;;;;;;;3.63;1.10;;;13.10;99.90;;;;;;4846249;29;20033;-90
2023/10/05 04:35:28;;;;;;;5.93;1.50;;;13.10;99.90;;;;;;4847245;29;20558;-91
2023/10/05 04:37:54;;;;;;;4.60;1.10;;;13.10;99.90;;;;;;4849588;29;20025;-90
2023/10/05 04:40:24;;;;;;;4.93;1.10;;;13.10;99.90;;;;;;4852162;29;20515;-90
2023/10/05 04:42:52;;;;;;;6.00;1.30;;;13.00;99.90;;;;;;4862409;29;20156;-90
2023/10/05 04:45:20;;;;;;;5.78;1.25;;;13.00;99.90;;;;;;4843770;29;20034;-90
2023/10/05 04:47:48;;;;;;;2.58;1.00;;;12.90;99.90;;;;;;4847508;29;20524;-90
2023/10/05 04:50:15;;;;;;;3.72;1.10;;;12.90;99.90;;;;;;4843826;29;20026;-90
2023/10/05 04:52:41;;;;;;;10.60;1.55;;;12.90;99.90;;;;;;4852245;29;20132;-90
2023/10/05 04:55:23;;;;;;;5.63;1.58;;;12.90;99.90;;;;;;4848021;29;20030;-90
2023/10/05 04:57:55;;;;;;;3.53;1.70;;;12.90;99.90;;;;;;4850717;29;20037;-90
2023/10/05 05:01:15;;;;;;;5.85;1.30;;;12.90;99.90;;;;;;4853845;29;20515;-90
2023/10/05 05:03:32;;;;;;;7.47;1.42;;;12.90;99.90;;;;;;4838254;29;20052;-90
2023/10/05 05:06:32;;;;;;;4.28;1.35;;;12.90;99.90;;;;;;4852921;29;20041;-90
2023/10/05 05:08:50;;;;;;;8.27;1.70;;;12.90;99.90;;;;;;4853011;29;20106;-90
2023/10/05 05:11:19;;;;;;;5.30;1.50;;;13.00;99.90;;;;;;4862513;29;20369;-90
2023/10/05 05:13:51;;;;;;;5.32;1.45;;;13.00;99.90;;;;;;4849361;29;20049;-90
2023/10/05 05:16:17;;;;;;;2.15;0.88;;;13.00;99.90;;;;;;4853295;29;20045;-90
2023/10/05 05:18:43;;;;;;;4.30;0.98;;;13.00;99.90;;;;;;4856014;29;20045;-91
2023/10/05 05:21:12;;;;;;;5.45;1.10;;;13.00;99.90;;;;;;4850463;29;20026;-89
2023/10/05 05:23:39;;;;;;;6.05;1.10;;;13.00;99.90;;;;;;4850201;29;20037;-92
2023/10/05 05:26:09;;;;;;;7.65;1.27;;;13.00;99.90;;;;;;4847765;29;20030;-89
2023/10/05 05:28:37;;;;;;;4.90;1.33;;;13.00;99.90;;;;;;4859454;29;20168;-90
2023/10/05 05:31:08;;;;;;;5.50;1.40;;;13.10;99.90;;;;;;4854509;29;20033;-90
2023/10/05 05:33:38;;;;;;;4.82;1.35;;;13.10;99.90;;;;;;4855335;29;20045;-90
2023/10/05 05:36:13;;;;;;;6.05;1.10;;;13.10;99.90;;;;;;4874631;29;20102;-91
2023/10/05 05:38:48;;;;;;;4.20;1.27;;;13.10;99.90;;;;;;4850154;29;20040;-91
2023/10/05 05:41:27;;;;;;;9.07;1.20;;;13.10;99.90;;;;;;4863821;29;20042;-90
2023/10/05 05:43:53;;;;;;;6.53;1.15;;;13.10;99.90;;;;;;4856200;29;20124;-90
2023/10/05 05:46:19;;;;;;;2.67;0.80;;;13.10;99.90;;;;;;4868420;29;20289;-90
2023/10/05 05:48:48;;;;;;;4.70;1.23;;;13.10;99.90;;;;;;4854084;29;20037;-91
2023/10/05 05:51:15;;;;;;;3.97;1.27;;;13.10;99.90;;;;;;4853280;29;20037;-90
2023/10/05 05:53:46;;;;;;;5.10;1.30;;;13.10;99.90;;;;;;4846782;29;20076;-90
2023/10/05 05:56:17;;;;;;;8.63;1.80;;;13.10;99.90;;;;;;4847918;29;20018;-91
2023/10/05 05:58:46;;;;;;;3.88;1.30;;;13.10;99.90;;;;;;4868837;29;20206;-91
2023/10/05 06:01:14;;;;;;;5.95;1.50;;;13.10;99.90;;;;;;4887492;23;20067;-74
2023/10/05 06:03:43;;;;;;;9.13;1.50;;;13.20;99.90;;;;;;4878544;29;20040;-73
2023/10/05 06:06:09;;;;;;;4.25;1.40;;;13.20;99.90;;;;;;4881252;29;20081;-73
2023/10/05 06:08:35;;;;;;;44.72;23.45;;;13.20;99.90;;;;;;4871773;29;20029;-73
2023/10/05 06:11:06;;;;;;;12.10;4.35;;;13.20;99.90;;;;;;4866996;29;20052;-73
2023/10/05 06:13:36;;;;;;;7.20;1.75;;;13.20;99.90;;;;;;4881159;29;20435;-73
2023/10/05 06:16:04;;;;;;;7.00;1.85;;;13.20;99.90;;;;;;4878050;29;20073;-73
2023/10/05 06:18:31;;;;;;;4.32;1.30;;;13.20;99.90;;;;;;4876603;29;20042;-75
2023/10/05 06:20:57;;;;;;;3.70;1.27;;;13.30;99.90;;;;;;4872862;29;20032;-73
2023/10/05 06:23:22;;;;;;;3.80;1.23;;;13.30;99.90;;;;;;4875262;29;20033;-74
2023/10/05 06:25:50;;;;;;;4.80;1.40;;;13.30;99.90;;;;;;4879480;29;20044;-74
2023/10/05 06:28:17;;;;;;;30.27;15.55;;;13.30;99.90;;;;;;4879345;29;20112;-74
2023/10/05 06:30:43;;;;;;;5.60;2.40;;;13.50;99.90;;;;;;4876728;29;20033;-74
2023/10/05 06:33:08;;;;;;;5.35;1.20;;;13.50;99.90;;;;;;4880539;29;20502;-74
2023/10/05 06:35:34;;;;;;;6.88;1.40;;;13.60;99.90;;;;;;4883353;29;20083;-74
2023/10/05 06:38:01;;;;;;;4.80;1.25;;;13.70;99.90;;;;;;4883458;29;20021;-74
2023/10/05 06:40:29;;;;;;;5.72;1.75;;;13.80;99.90;;;;;;4882500;29;20033;-73
2023/10/05 06:42:57;;;;;;;4.88;1.27;;;13.80;99.90;;;;;;4882225;29;20418;-74
2023/10/05 06:45:23;;;;;;;13.23;5.70;;;13.90;99.90;;;;;;4881551;29;20047;-74
2023/10/05 06:47:50;;;;;;;3.75;1.15;;;13.80;99.90;;;;;;4881831;29;20036;-74
2023/10/05 06:50:17;;;;;;;7.43;1.13;;;13.90;99.90;;;;;;4882136;29;20439;-74
2023/10/05 06:52:49;;;;;;;8.90;1.75;;;14.00;99.90;;;;;;4881152;29;20479;-74
2023/10/05 06:55:23;;;;;;;4.68;1.33;;;14.00;99.90;;;;;;4883398;29;20063;-74
2023/10/05 06:57:51;;;;;;;5.85;1.17;;;14.00;99.90;;;;;;4881116;29;20028;-75
2023/10/05 07:00:21;;;;;;;5.78;1.58;;;14.10;99.90;;;;;;4884115;29;20489;-75
2023/10/05 07:02:53;;;;;;;12.30;4.03;;;14.00;99.90;;;;;;4884433;29;20067;-74
2023/10/05 07:05:20;;;;;;;5.50;1.90;;;14.00;99.90;;;;;;4882456;29;20025;-74
2023/10/05 07:07:46;;;;;;;2.63;1.20;;;14.00;99.90;;;;;;4885352;29;20083;-74
2023/10/05 07:10:14;;;;;;;5.03;1.38;;;13.90;99.90;;;;;;4868703;29;20072;-74
2023/10/05 07:12:46;;;;;;;3.60;1.10;;;13.90;99.90;;;;;;4870871;29;20533;-74
2023/10/05 07:15:17;;;;;;;8.70;1.50;;;13.90;99.90;;;;;;4882713;29;20204;-73
2023/10/05 07:17:43;;;;;;;4.40;1.13;;;13.90;99.90;;;;;;4882110;29;20375;-74
2023/10/05 07:20:11;;;;;;;4.95;1.02;;;14.00;99.90;;;;;;4881702;29;20036;-74
2023/10/05 07:22:45;;;;;;;4.47;1.33;;;14.00;99.90;;;;;;4881406;29;20461;-74
2023/10/05 07:25:12;;;;;;;3.30;0.90;;;14.10;99.90;;;;;;4873015;29;20028;-74
2023/10/05 07:27:39;;;;;;;5.53;1.33;;;14.20;99.90;;;;;;4869723;29;20252;-74
2023/10/05 07:30:06;;;;;;;5.90;1.23;;;14.20;99.90;;;;;;4879670;29;20116;-74
2023/10/05 07:32:34;;;;;;;4.07;1.20;;;14.30;99.90;;;;;;4880906;29;20206;-75
2023/10/05 07:35:01;;;;;;;3.60;0.90;;;14.40;99.90;;;;;;4886654;29;20127;-74
2023/10/05 07:37:26;;;;;;;3.83;0.95;;;14.60;99.90;;;;;;4870628;29;20032;-75
2023/10/05 07:39:52;;;;;;;5.25;1.38;;;14.80;99.90;;;;;;4869842;29;20033;-75
2023/10/05 07:42:18;;;;;;;5.07;1.20;;;15.00;99.90;;;;;;4870960;29;20500;-75
2023/10/05 07:44:44;;;;;;;5.57;1.15;;;15.20;99.90;;;;;;4868997;29;20036;-74
2023/10/05 07:47:13;;;;;;;6.82;1.25;;;15.50;99.90;;;;;;4867716;29;20084;-75
2023/10/05 07:49:41;;;;;;;3.30;1.00;;;15.80;99.90;;;;;;4869107;29;20064;-74
2023/10/05 07:52:11;;;;;;;7.68;1.25;;;16.40;99.90;;;;;;4867784;29;20051;-74
2023/10/05 07:54:40;;;;;;;7.13;1.60;;;17.40;99.90;;;;;;4869608;29;20475;-74
2023/10/05 07:57:10;;;;;;;6.45;1.08;;;18.60;99.90;;;;;;4873356;29;20553;-74
2023/10/05 07:59:42;;;;;;;3.97;0.90;;;19.70;99.90;;;;;;4880783;29;20051;-74
2023/10/05 08:02:12;;;;;;;4.28;1.10;;;20.20;99.90;;;;;;4883778;29;20694;-74
2023/10/05 08:04:38;;;;;;;6.72;1.23;;;20.50;99.90;;;;;;4882118;29;20073;-74
2023/10/05 08:07:04;;;;;;;5.53;1.50;;;21.10;99.90;;;;;;4880968;29;20320;-75
2023/10/05 08:09:30;;;;;;;3.20;1.08;;;22.60;99.90;;;;;;4875288;29;20071;-74
2023/10/05 08:11:59;;;;;;;5.55;1.10;;;24.00;99.70;;;;;;4883171;29;20072;-73
2023/10/05 08:14:26;;;;;;;6.32;1.20;;;24.60;96.00;;;;;;4881524;29;20036;-71
2023/10/05 08:16:55;;;;;;;7.80;1.40;;;24.50;94.80;;;;;;4880343;29;20032;-74
2023/10/05 08:19:21;;;;;;;6.20;1.02;;;24.00;93.40;;;;;;4885148;29;20039;-74
2023/10/05 08:21:47;;;;;;;4.22;1.27;;;24.00;94.20;;;;;;4876443;29;20033;-73
2023/10/05 08:24:17;;;;;;;5.25;1.15;;;25.20;93.50;;;;;;4868533;29;20096;-73
2023/10/05 08:26:43;;;;;;;5.13;1.10;;;27.10;85.70;;;;;;4872392;29;20060;-71
2023/10/05 08:29:09;;;;;;;2.92;0.88;;;29.10;76.00;;;;;;4883434;29;20041;-74
2023/10/05 08:31:35;;;;;;;6.72;1.15;;;29.00;67.30;;;;;;4884646;29;20036;-74
2023/10/05 08:34:02;;;;;;;4.13;0.95;;;28.20;66.70;;;;;;4876757;29;20524;-73
2023/10/05 08:36:28;;;;;;;6.40;1.10;;;27.50;74.60;;;;;;4863600;29;20029;-73
2023/10/05 08:38:54;;;;;;;7.88;1.00;;;27.10;71.40;;;;;;4863830;29;20431;-73
2023/10/05 08:41:36;;;;;;;4.75;0.95;;;26.80;75.20;;;;;;4864282;29;20526;-73
2023/10/05 08:44:10;;;;;;;7.03;1.30;;;26.60;76.50;;;;;;4876865;29;20040;-73
2023/10/05 08:46:43;;;;;;;6.05;1.35;;;26.40;73.80;;;;;;4866385;29;20085;-73
2023/10/05 08:49:12;;;;;;;5.47;1.13;;;25.60;74.90;;;;;;4872634;29;20115;-72
2023/10/05 08:51:44;;;;;;;5.18;1.00;;;24.50;79.20;;;;;;4885095;29;20224;-72
2023/10/05 08:54:13;;;;;;;5.80;1.38;;;23.40;85.00;;;;;;4882903;29;20311;-72
2023/10/05 08:56:40;;;;;;;4.20;1.00;;;22.40;90.00;;;;;;4881133;29;20025;-72
2023/10/05 08:59:13;;;;;;;5.93;1.20;;;21.90;94.10;;;;;;4876425;29;20044;-72
2023/10/05 09:01:42;;;;;;;4.95;1.30;;;21.80;96.00;;;;;;4882182;29;20571;-72
2023/10/05 09:04:11;;;;;;;6.25;1.40;;;21.80;98.60;;;;;;4882486;29;20043;-72
2023/10/05 09:06:57;;;;;;;9.38;1.10;;;22.20;96.80;;;;;;4881405;29;20051;-72
2023/10/05 09:09:39;;;;;;;5.95;1.20;;;22.70;93.90;;;;;;4875504;29;20044;-72
2023/10/05 09:12:46;;;;;;;8.43;1.20;;;22.80;96.50;;;;;;4866638;29;20040;-72
2023/10/05 09:15:27;;;;;;;4.57;1.27;;;22.80;97.80;;;;;;4879665;29;20064;-72
2023/10/05 09:17:58;;;;;;;;;;;23.60;96.10;;;;;;4882728;29;20034;-73
2023/10/05 09:20:38;;;;;;;4.13;1.27;;;23.90;94.30;;;;;;4880681;29;19922;-73
2023/10/05 09:23:09;;;;;;;4.75;1.05;;;23.60;95.50;;;;;;4877254;29;20490;-72
2023/10/05 09:25:36;;;;;;;;;;;23.30;93.60;;;;;;4879438;29;20040;-72
2023/10/05 09:30:49;;;;;;;19.08;5.68;;;23.40;93.80;;;;;;4858350;29;20363;-65
2023/10/05 09:33:18;;;;;;;5.47;1.52;;;23.30;93.60;;;;;;4855255;29;20388;-65
2023/10/05 09:35:46;;;;;;;6.78;1.67;;;22.90;95.00;;;;;;4855361;29;20112;-65
2023/10/05 09:38:15;;;;;;;5.53;1.25;;;22.50;99.10;;;;;;4860547;29;20036;-65
2023/10/05 09:40:46;;;;;;;7.28;1.60;;;22.20;97.50;;;;;;4854140;29;20342;-65
2023/10/05 09:43:18;;;;;;;6.50;1.10;;;21.90;97.70;;;;;;4850273;29;20051;-65
2023/10/05 09:45:48;;;;;;;10.55;2.50;;;21.70;98.70;;;;;;4858027;29;20814;-65
2023/10/05 09:48:16;;;;;;;16.55;3.42;;;21.70;98.80;;;;;;4850703;29;20077;-65
2023/10/05 09:50:43;;;;;;;4.05;0.90;;;21.70;99.90;;;;;;4856078;29;20052;-65
2023/10/05 09:53:11;;;;;;;4.57;1.00;;;21.90;99.90;;;;;;4853531;29;20144;-65
2023/10/05 09:55:40;;;;;;;5.50;1.13;;;22.00;99.90;;;;;;4844869;29;20177;-65
2023/10/05 09:58:12;;;;;;;6.28;1.23;;;22.10;98.60;;;;;;4852981;29;20088;-65
2023/10/05 10:03:05;;;;;;;6.78;1.38;;;22.50;99.30;;;;;;4843460;29;20037;-65
2023/10/05 10:05:44;;;;;;;10.32;1.58;;;23.00;96.90;;;;;;4859719;29;20068;-65
2023/10/05 10:08:13;;;;;;;7.18;1.08;;;23.50;97.40;;;;;;4850014;29;20119;-65
2023/10/05 10:10:43;;;;;;;5.53;1.30;;;23.80;96.90;;;;;;4854519;29;20081;-65
2023/10/05 10:13:12;;;;;;;8.05;1.35;;;24.00;95.80;;;;;;4854396;29;20120;-65
2023/10/05 10:15:46;;;;;;;6.63;1.67;;;24.00;91.50;;;;;;4856731;29;20037;-65
2023/10/05 10:18:15;;;;;;;5.43;1.30;;;23.90;93.00;;;;;;4858968;29;20084;-65
2023/10/05 10:20:56;;;;;;;8.85;1.40;;;24.20;94.70;;;;;;4858756;29;20149;-65
2023/10/05 10:23:26;;;;;;;5.88;1.35;;;24.80;91.50;;;;;;4852880;29;20596;-66
2023/10/05 10:26:16;;;;;;;5.37;1.30;;;24.90;91.40;;;;;;4858316;29;20572;-65
2023/10/05 10:31:17;;;;;;;6.10;1.60;;;26.10;91.50;;;;;;4838840;29;20131;-65
2023/10/05 10:33:43;;;;;;;5.13;1.27;;;27.40;78.10;;;;;;4843002;29;20049;-65
2023/10/05 10:36:18;;;;;;;5.68;1.40;;;28.70;79.30;;;;;;4847164;29;20026;-65
2023/10/05 10:38:50;;;;;;;6.80;1.30;;;30.70;72.00;;;;;;4843723;29;20045;-64
2023/10/05 10:41:21;;;;;;;4.50;1.10;;;31.10;62.00;;;;;;4844620;29;20443;-64
2023/10/05 10:43:52;;;;;;;3.88;1.20;;;31.90;63.00;;;;;;4845682;29;20094;-64
2023/10/05 10:46:29;;;;;;;7.65;1.40;;;33.00;56.40;;;;;;4844480;29;20041;-65
2023/10/05 10:48:59;;;;;;;5.47;1.50;;;33.70;55.00;;;;;;4847539;29;20033;-65
2023/10/05 10:51:37;;;;;;;4.68;0.90;;;33.90;54.90;;;;;;4854916;29;20131;-65
2023/10/05 10:54:14;;;;;;;3.58;1.00;;;34.50;52.60;;;;;;4848094;29;20048;-65
2023/10/05 10:56:44;;;;;;;3.55;1.20;;;34.60;50.60;;;;;;4856134;29;20114;-65
2023/10/05 10:59:20;;;;;;;4.07;1.40;;;34.10;50.90;;;;;;4855114;29;20033;-65
2023/10/05 11:01:59;;;;;;;4.75;1.38;;;33.50;51.50;;;;;;4853604;29;20636;-65
2023/10/05 11:04:33;;;;;;;4.95;1.30;;;32.60;50.80;;;;;;4863651;29;20509;-65
2023/10/05 11:07:05;;;;;;;8.90;2.22;;;31.80;53.30;;;;;;4858842;29;20064;-65
2023/10/05 11:09:52;;;;;;;7.60;1.50;;;30.90;57.10;;;;;;4859947;29;20108;-65
2023/10/05 11:12:22;;;;;;;4.68;1.50;;;29.60;53.60;;;;;;4858429;29;20037;-66
2023/10/05 11:14:59;;;;;;;9.70;1.60;;;28.20;57.20;;;;;;4848876;29;20049;-65
2023/10/05 11:17:44;;;;;;;7.28;1.75;;;26.90;61.10;;;;;;4849096;29;20093;-65
2023/10/05 11:20:32;;;;;;;7.25;1.38;;;26.10;71.30;;;;;;4861304;29;20025;-65
2023/10/05 11:23:03;;;;;;;7.50;1.40;;;25.30;67.50;;;;;;4852303;29;20051;-65
2023/10/05 11:25:35;;;;;;;5.03;1.10;;;24.60;71.10;;;;;;4846008;29;20137;-65
2023/10/05 11:28:01;;;;;;;5.95;1.27;;;23.90;79.80;;;;;;4856882;29;20049;-65
2023/10/05 11:30:48;;;;;;;5.53;1.50;;;23.10;81.20;;;;;;4850022;29;20228;-66
2023/10/05 11:33:18;;;;;;;4.30;1.38;;;22.40;90.70;;;;;;4849571;29;20490;-65
2023/10/05 11:35:48;;;;;;;7.18;1.67;;;21.70;94.40;;;;;;4859395;29;20099;-65
2023/10/05 11:38:16;;;;;;;7.50;1.40;;;21.10;98.70;;;;;;4846813;29;20089;-65
2023/10/05 11:40:56;;;;;;;7.30;1.40;;;20.80;99.90;;;;;;4861689;29;20036;-65
2023/10/05 11:43:22;;;;;;;8.50;1.35;;;20.40;99.90;;;;;;4849785;29;20029;-65
2023/10/05 11:45:59;;;;;;;3.25;1.00;;;20.10;99.90;;;;;;4857336;29;20351;-65
2023/10/05 11:48:41;;;;;;;8.23;1.50;;;19.80;99.90;;;;;;4862915;29;20052;-65
2023/10/05 11:51:27;;;;;;;7.78;1.50;;;19.70;99.90;;;;;;4857386;29;20052;-66
2023/10/05 11:53:55;;;;;;;4.38;1.17;;;19.60;99.90;;;;;;4867952;29;20036;-65
2023/10/05 11:56:22;;;;;;;9.30;1.80;;;19.60;99.90;;;;;;4864503;29;20112;-65
2023/10/05 11:58:49;;;;;;;7.13;1.50;;;19.70;99.90;;;;;;4865311;29;20032;-65
2023/10/05 12:01:19;;;;;;;6.68;1.30;;;19.80;99.90;;;;;;4850462;29;20068;-65
2023/10/05 12:03:47;;;;;;;8.18;1.70;;;19.90;99.90;;;;;;4853581;29;20503;-65
2023/10/05 12:06:15;;;;;;;6.75;1.50;;;20.10;99.90;;;;;;4848033;29;20468;-65
2023/10/05 12:08:46;;;;;;;8.00;1.50;;;20.60;99.90;;;;;;4864557;29;20096;-65
2023/10/05 12:11:13;;;;;;;4.18;1.05;;;21.00;99.90;;;;;;4848768;29;20117;-66
2023/10/05 12:13:39;;;;;;;15.25;3.08;;;21.60;99.90;;;;;;4857427;29;20120;-65
2023/10/05 12:16:11;;;;;;;7.88;1.45;;;22.10;99.90;;;;;;4855901;29;20570;-65
2023/10/05 12:18:38;;;;;;;6.40;1.67;;;22.50;99.90;;;;;;4866840;29;20065;-65
2023/10/05 12:21:03;;;;;;;5.97;1.55;;;22.60;99.90;;;;;;4860545;29;20046;-65
2023/10/05 12:23:29;;;;;;;6.75;1.40;;;22.50;99.90;;;;;;4864274;29;20200;-65
2023/10/05 12:25:55;;;;;;;4.53;1.38;;;22.30;99.90;;;;;;4853385;29;20033;-65
2023/10/05 12:28:23;;;;;;;6.13;1.73;;;22.00;99.90;;;;;;4864245;29;20163;-65
2023/10/05 12:30:49;;;;;;;7.32;1.80;;;21.70;99.90;;;;;;4858848;29;20439;-65
2023/10/05 12:33:15;;;;;;;8.68;1.52;;;21.30;99.90;;;;;;4847259;29;20056;-65
2023/10/05 12:35:43;;;;;;;4.88;1.30;;;21.20;99.90;;;;;;4857393;29;20072;-66
2023/10/05 12:38:10;;;;;;;6.53;1.67;;;21.20;99.90;;;;;;4849788;29;20037;-65
2023/10/05 12:40:40;;;;;;;7.88;1.52;;;21.00;99.90;;;;;;4865462;29;20025;-66
2023/10/05 12:43:09;;;;;;;17.65;5.18;;;21.10;99.90;;;;;;4863107;29;20040;-66
2023/10/05 12:45:35;;;;;;;18.00;5.30;;;21.30;99.90;;;;;;4848485;29;20029;-65
2023/10/05 12:48:04;;;;;;;25.58;8.13;;;21.60;99.90;;;;;;4848729;29;20473;-65
2023/10/05 12:50:30;;;;;;;9.30;2.10;;;21.90;99.90;;;;;;4860806;29;20426;-66
2023/10/05 12:52:58;;;;;;;4.72;1.40;;;22.20;99.90;;;;;;4862145;29;20151;-65
2023/10/05 12:55:29;;;;;;;2.95;1.15;;;22.40;99.90;;;;;;4862920;29;20397;-65
2023/10/05 12:57:55;;;;;;;4.93;1.40;;;22.50;99.40;;;;;;4850057;29;20344;-65
2023/10/05 13:00:25;;;;;;;39.80;13.02;;;22.60;98.60;;;;;;4854937;29;20399;-65
2023/10/05 13:02:55;;;;;;;118.70;39.20;;;22.60;99.90;;;;;;4866201;29;20064;-65
2023/10/05 13:05:24;;;;;;;7.53;1.40;;;22.40;99.90;;;;;;4857257;29;20033;-65
2023/10/05 13:07:50;;;;;;;8.13;1.60;;;22.40;97.50;;;;;;4848008;29;20041;-65
2023/10/05 13:10:32;;;;;;;6.50;1.95;;;22.60;99.90;;;;;;4861156;29;20033;-65